createdAt,value
2023-05-18T00:02:28.952Z,100.00
2023-05-18T00:04:57.725Z,100.00
2023-05-18T00:07:26.414Z,100.00
2023-05-18T00:09:55.083Z,100.00
2023-05-18T00:12:23.941Z,100.00
2023-05-18T00:14:52.524Z,100.00
2023-05-18T00:17:22.057Z,100.00
2023-05-18T00:19:52.178Z,100.00
2023-05-18T00:22:20.715Z,100.00
2023-05-18T00:24:49.819Z,100.00
2023-05-18T00:27:18.307Z,100.00
2023-05-18T00:29:47.710Z,100.00
2023-05-18T00:32:16.557Z,100.00
2023-05-18T00:34:45.045Z,100.00
2023-05-18T00:37:15.167Z,100.00
2023-05-18T00:39:45.111Z,100.00
2023-05-18T00:42:13.944Z,100.00
2023-05-18T00:44:42.468Z,100.00
2023-05-18T00:47:11.867Z,100.00
2023-05-18T00:49:40.660Z,100.00
2023-05-18T00:52:09.345Z,100.00
2023-05-18T00:54:39.818Z,100.00
2023-05-18T00:57:08.938Z,100.00
2023-05-18T00:59:38.173Z,100.00
2023-05-18T01:02:10.228Z,100.00
2023-05-18T01:04:41.640Z,100.00
2023-05-18T01:07:11.418Z,100.00
2023-05-18T01:09:41.567Z,100.00
2023-05-18T01:12:20.252Z,100.00
2023-05-18T01:14:54.241Z,100.00
2023-05-18T01:17:34.010Z,100.00
2023-05-18T01:20:20.704Z,100.00
2023-05-18T01:23:14.263Z,100.00
2023-05-18T01:25:51.958Z,100.00
2023-05-18T01:28:26.704Z,100.00
2023-05-18T01:30:56.271Z,100.00
2023-05-18T01:33:28.110Z,100.00
2023-05-18T01:35:56.662Z,100.00
2023-05-18T01:38:27.509Z,100.00
2023-05-18T01:41:01.503Z,100.00
2023-05-18T01:43:36.084Z,100.00
2023-05-18T01:46:15.221Z,100.00
2023-05-18T01:48:49.900Z,100.00
2023-05-18T01:51:22.678Z,100.00
2023-05-18T01:53:59.872Z,100.00
2023-05-18T01:56:30.292Z,100.00
2023-05-18T01:59:02.987Z,100.00
2023-05-18T02:01:32.007Z,100.00
2023-05-18T02:04:00.730Z,100.00
2023-05-18T02:06:29.457Z,100.00
2023-05-18T02:08:58.041Z,100.00
2023-05-18T02:11:26.626Z,100.00
2023-05-18T02:13:55.846Z,100.00
2023-05-18T02:16:26.312Z,100.00
2023-05-18T02:18:56.836Z,100.00
2023-05-18T02:21:26.319Z,100.00
2023-05-18T02:23:55.020Z,100.00
2023-05-18T02:26:24.212Z,100.00
2023-05-18T02:28:52.747Z,100.00
2023-05-18T02:31:21.359Z,100.00
2023-05-18T02:33:51.432Z,100.00
2023-05-18T02:36:22.749Z,100.00
2023-05-18T02:38:51.434Z,100.00
2023-05-18T02:41:20.266Z,100.00
2023-05-18T02:43:48.836Z,100.00
2023-05-18T02:46:17.458Z,100.00
2023-05-18T02:48:46.021Z,100.00
2023-05-18T02:51:16.149Z,100.00
2023-05-18T02:53:45.755Z,100.00
2023-05-18T02:56:14.451Z,100.00
2023-05-18T02:58:43.969Z,100.00
2023-05-18T03:01:13.643Z,100.00
2023-05-18T03:03:43.743Z,100.00
2023-05-18T03:06:12.408Z,100.00
2023-05-18T03:08:42.839Z,100.00
2023-05-18T03:11:11.685Z,100.00
2023-05-18T03:13:40.449Z,100.00
2023-05-18T03:16:09.298Z,100.00
2023-05-18T03:18:38.138Z,100.00
2023-05-18T03:21:08.418Z,100.00
2023-05-18T03:23:37.134Z,100.00
2023-05-18T03:26:11.787Z,100.00
2023-05-18T03:28:40.641Z,100.00
2023-05-18T03:31:09.430Z,100.00
2023-05-18T03:33:37.910Z,100.00
2023-05-18T03:36:06.900Z,100.00
2023-05-18T03:38:35.502Z,100.00
2023-05-18T03:41:04.385Z,100.00
2023-05-18T03:43:34.410Z,100.00
2023-05-18T03:46:03.021Z,100.00
2023-05-18T03:48:31.680Z,100.00
2023-05-18T03:51:00.495Z,100.00
2023-05-18T03:53:29.835Z,100.00
2023-05-18T03:55:58.684Z,100.00
2023-05-18T03:58:27.794Z,100.00
2023-05-18T04:00:58.236Z,100.00
2023-05-18T04:03:27.504Z,100.00
2023-05-18T04:05:56.522Z,100.00
2023-05-18T04:08:25.878Z,100.00
2023-05-18T04:10:55.614Z,100.00
2023-05-18T04:13:24.241Z,100.00
2023-05-18T04:15:53.167Z,100.00
2023-05-18T04:18:23.470Z,100.00
2023-05-18T04:20:52.959Z,100.00
2023-05-18T04:23:21.487Z,100.00
2023-05-18T04:25:50.466Z,100.00
2023-05-18T04:28:19.470Z,100.00
2023-05-18T04:30:48.143Z,100.00
2023-05-18T04:33:17.154Z,100.00
2023-05-18T04:35:47.158Z,100.00
2023-05-18T04:38:16.885Z,100.00
2023-05-18T04:40:45.655Z,100.00
2023-05-18T04:43:14.349Z,100.00
2023-05-18T04:45:43.094Z,100.00
2023-05-18T04:48:11.795Z,100.00
2023-05-18T04:50:43.368Z,100.00
2023-05-18T04:53:14.853Z,100.00
2023-05-18T04:55:43.348Z,100.00
2023-05-18T04:58:12.452Z,100.00
2023-05-18T05:00:41.350Z,100.00
2023-05-18T05:03:10.684Z,100.00
2023-05-18T05:05:39.428Z,100.00
2023-05-18T05:08:08.027Z,100.00
2023-05-18T05:10:38.241Z,100.00
2023-05-18T05:13:07.670Z,100.00
2023-05-18T05:15:37.559Z,100.00
2023-05-18T05:18:07.523Z,100.00
2023-05-18T05:20:36.150Z,100.00
2023-05-18T05:23:04.938Z,100.00
2023-05-18T05:25:33.758Z,100.00
2023-05-18T05:28:04.419Z,100.00
2023-05-18T05:30:34.117Z,100.00
2023-05-18T05:33:10.115Z,100.00
2023-05-18T05:35:39.396Z,100.00
2023-05-18T05:38:08.663Z,100.00
2023-05-18T05:40:37.279Z,100.00
2023-05-18T05:43:08.017Z,100.00
2023-05-18T05:45:36.697Z,100.00
2023-05-18T05:48:05.431Z,100.00
2023-05-18T05:50:34.305Z,100.00
2023-05-18T05:53:02.983Z,100.00
2023-05-18T05:55:31.837Z,100.00
2023-05-18T05:58:00.528Z,100.00
2023-05-18T06:00:30.584Z,100.00
2023-05-18T06:02:59.235Z,100.00
2023-05-18T06:05:28.079Z,100.00
2023-05-18T06:07:58.000Z,100.00
2023-05-18T06:10:26.795Z,100.00
2023-05-18T06:12:55.441Z,100.00
2023-05-18T06:15:24.226Z,100.00
2023-05-18T06:17:54.209Z,100.00
2023-05-18T06:20:22.765Z,100.00
2023-05-18T06:22:51.480Z,100.00
2023-05-18T06:25:20.252Z,100.00
2023-05-18T06:27:48.845Z,100.00
2023-05-18T06:30:17.584Z,100.00
2023-05-18T06:32:46.129Z,100.00
2023-05-18T06:35:16.394Z,100.00
2023-05-18T06:37:46.969Z,100.00
2023-05-18T06:40:15.749Z,100.00
2023-05-18T06:42:44.232Z,100.00
2023-05-18T06:45:17.356Z,100.00
2023-05-18T06:47:46.897Z,100.00
2023-05-18T06:50:17.620Z,100.00
2023-05-18T06:52:46.498Z,100.00
2023-05-18T06:55:15.617Z,100.00
2023-05-18T06:57:44.589Z,100.00
2023-05-18T07:00:14.000Z,100.00
2023-05-18T07:02:44.544Z,100.00
2023-05-18T07:05:13.840Z,100.00
2023-05-18T07:07:44.012Z,100.00
2023-05-18T07:10:12.854Z,100.00
2023-05-18T07:12:41.338Z,100.00
2023-05-18T07:15:11.758Z,100.00
2023-05-18T07:17:40.396Z,97.38
2023-05-18T07:20:10.796Z,98.16
2023-05-18T07:22:39.339Z,98.16
2023-05-18T07:25:10.111Z,99.19
2023-05-18T07:27:38.687Z,98.85
2023-05-18T07:30:09.294Z,98.40
2023-05-18T07:32:38.352Z,97.78
2023-05-18T07:35:07.653Z,96.77
2023-05-18T07:37:36.194Z,97.31
2023-05-18T07:40:05.327Z,95.36
2023-05-18T07:42:35.224Z,94.81
2023-05-18T07:45:03.848Z,97.13
2023-05-18T07:47:32.338Z,95.98
2023-05-18T07:50:00.960Z,94.79
2023-05-18T07:52:29.695Z,96.10
2023-05-18T07:54:58.393Z,93.86
2023-05-18T07:57:27.650Z,93.15
2023-05-18T07:59:57.871Z,92.08
2023-05-18T08:02:26.698Z,92.28
2023-05-18T08:04:55.930Z,91.57
2023-05-18T08:07:26.780Z,92.34
2023-05-18T08:09:55.968Z,93.81
2023-05-18T08:12:24.800Z,92.45
2023-05-18T08:14:54.086Z,92.31
2023-05-18T08:17:24.296Z,88.69
2023-05-18T08:19:54.069Z,91.30
2023-05-18T08:22:22.684Z,89.63
2023-05-18T08:24:51.209Z,88.54
2023-05-18T08:27:20.264Z,88.13
2023-05-18T08:29:48.955Z,88.62
2023-05-18T08:32:17.482Z,84.07
2023-05-18T08:34:48.011Z,86.30
2023-05-18T08:37:16.875Z,84.36
2023-05-18T08:39:46.393Z,85.88
2023-05-18T08:42:21.325Z,83.20
2023-05-18T08:45:00.033Z,83.49
2023-05-18T08:47:32.426Z,82.95
2023-05-18T08:50:04.008Z,82.84
2023-05-18T08:52:37.889Z,83.19
2023-05-18T08:55:11.816Z,82.57
2023-05-18T08:58:23.864Z,81.52
2023-05-18T09:00:54.855Z,80.47
2023-05-18T09:03:24.643Z,79.17
2023-05-18T09:05:55.417Z,77.27
2023-05-18T09:08:25.109Z,76.98
2023-05-18T09:10:54.685Z,74.69
2023-05-18T09:13:23.349Z,77.85
2023-05-18T09:15:52.210Z,78.11
2023-05-18T09:18:23.609Z,78.86
2023-05-18T09:20:54.772Z,78.45
2023-05-18T09:23:23.358Z,78.58
2023-05-18T09:25:54.141Z,75.97
2023-05-18T09:28:33.328Z,74.84
2023-05-18T09:31:02.239Z,76.13
2023-05-18T09:33:35.628Z,74.88
2023-05-18T09:36:06.800Z,77.12
2023-05-18T09:38:38.555Z,77.27
2023-05-18T09:41:12.744Z,76.46
2023-05-18T09:43:44.013Z,75.74
2023-05-18T09:46:13.551Z,74.27
2023-05-18T09:48:44.261Z,71.42
2023-05-18T09:51:17.198Z,74.56
2023-05-18T09:53:50.856Z,73.40
2023-05-18T09:56:20.132Z,73.35
2023-05-18T09:59:07.906Z,71.85
2023-05-18T10:01:37.096Z,68.12
2023-05-18T10:04:06.545Z,66.99
2023-05-18T10:06:36.808Z,69.50
2023-05-18T10:09:06.104Z,71.12
2023-05-18T10:11:35.042Z,69.62
2023-05-18T10:14:04.127Z,65.30
2023-05-18T10:16:34.326Z,61.96
2023-05-18T10:19:05.241Z,65.33
2023-05-18T10:21:38.714Z,63.78
2023-05-18T10:24:09.135Z,66.61
2023-05-18T10:26:40.695Z,65.52
2023-05-18T10:29:11.126Z,68.14
2023-05-18T10:31:40.612Z,67.18
2023-05-18T10:34:10.651Z,66.45
2023-05-18T10:36:40.874Z,62.86
2023-05-18T10:39:11.499Z,66.15
2023-05-18T10:41:41.451Z,65.97
2023-05-18T10:44:11.342Z,64.48
2023-05-18T10:46:41.211Z,65.06
2023-05-18T10:49:15.201Z,65.59
2023-05-18T10:51:47.688Z,65.90
2023-05-18T10:54:16.588Z,65.83
2023-05-18T10:56:48.126Z,65.98
2023-05-18T10:59:18.635Z,65.26
2023-05-18T11:01:49.285Z,63.56
2023-05-18T11:04:18.027Z,60.28
2023-05-18T11:06:57.093Z,63.85
2023-05-18T11:09:26.701Z,60.93
2023-05-18T11:11:58.268Z,62.50
2023-05-18T11:14:28.707Z,62.87
2023-05-18T11:17:17.967Z,61.22
2023-05-18T11:20:13.797Z,55.39
2023-05-18T11:22:46.346Z,57.83
2023-05-18T11:25:39.268Z,58.01
2023-05-18T11:28:10.029Z,57.33
2023-05-18T11:30:52.649Z,57.65
2023-05-18T11:33:26.845Z,60.36
2023-05-18T11:36:13.909Z,58.58
2023-05-18T11:39:04.062Z,54.67
2023-05-18T11:41:36.937Z,57.04
2023-05-18T11:44:10.326Z,56.97
2023-05-18T11:46:39.368Z,57.49
2023-05-18T11:49:09.930Z,57.86
2023-05-18T11:51:58.680Z,51.23
2023-05-18T11:54:29.658Z,54.27
2023-05-18T11:57:00.210Z,57.46
2023-05-18T11:59:33.480Z,53.63
2023-05-18T12:02:03.989Z,51.86
2023-05-18T12:04:33.913Z,52.64
2023-05-18T12:07:06.844Z,52.42
2023-05-18T12:09:37.296Z,51.20
2023-05-18T12:12:07.012Z,55.95
2023-05-18T12:14:37.633Z,54.17
2023-05-18T12:17:07.041Z,52.71
2023-05-18T12:19:45.617Z,52.28
2023-05-18T12:22:14.415Z,52.51
2023-05-18T12:24:45.985Z,52.87
2023-05-18T12:27:14.787Z,50.33
2023-05-18T12:29:44.221Z,50.58
2023-05-18T12:32:14.801Z,53.21
2023-05-18T12:34:48.209Z,52.99
2023-05-18T12:37:16.911Z,51.77
2023-05-18T12:39:46.900Z,50.43
2023-05-18T12:42:16.665Z,48.34
2023-05-18T12:44:46.768Z,51.74
2023-05-18T12:47:16.315Z,49.25
2023-05-18T12:49:50.356Z,52.69
2023-05-18T12:52:19.244Z,48.57
2023-05-18T12:55:00.210Z,48.67
2023-05-18T12:57:31.405Z,49.51
2023-05-18T13:00:00.454Z,48.47
2023-05-18T13:02:31.729Z,47.53
2023-05-18T13:05:04.730Z,47.32
2023-05-18T13:07:34.648Z,46.32
2023-05-18T13:10:07.410Z,46.78
2023-05-18T13:12:47.238Z,46.96
2023-05-18T13:15:18.143Z,43.80
2023-05-18T13:17:56.378Z,45.25
2023-05-18T13:20:25.670Z,46.01
2023-05-18T13:22:56.291Z,47.06
2023-05-18T13:25:26.314Z,46.07
2023-05-18T13:27:55.523Z,45.97
2023-05-18T13:30:24.526Z,46.66
2023-05-18T13:32:53.762Z,46.98
2023-05-18T13:35:22.732Z,44.32
2023-05-18T13:37:53.461Z,42.08
2023-05-18T13:40:24.207Z,45.80
2023-05-18T13:42:54.719Z,45.72
2023-05-18T13:45:23.548Z,45.15
2023-05-18T13:47:53.829Z,44.94
2023-05-18T13:50:23.334Z,44.16
2023-05-18T13:52:52.186Z,42.48
2023-05-18T13:55:20.845Z,44.06
2023-05-18T13:57:49.334Z,45.01
2023-05-18T14:00:20.994Z,43.90
2023-05-18T14:02:49.981Z,43.64
2023-05-18T14:05:18.790Z,44.52
2023-05-18T14:07:47.395Z,45.02
2023-05-18T14:10:15.978Z,45.01
2023-05-18T14:12:44.455Z,43.74
2023-05-18T14:15:15.157Z,39.97
2023-05-18T14:17:50.034Z,42.53
2023-05-18T14:20:19.960Z,42.97
2023-05-18T14:22:48.745Z,43.94
2023-05-18T14:25:17.643Z,44.47
2023-05-18T14:27:46.651Z,44.50
2023-05-18T14:30:15.518Z,44.65
2023-05-18T14:32:45.681Z,42.89
2023-05-18T14:35:14.374Z,43.24
2023-05-18T14:37:43.033Z,42.07
2023-05-18T14:40:12.231Z,43.38
2023-05-18T14:42:40.912Z,41.52
2023-05-18T14:45:10.735Z,42.65
2023-05-18T14:47:39.569Z,42.78
2023-05-18T14:50:10.361Z,42.19
2023-05-18T14:52:39.057Z,43.36
2023-05-18T14:55:08.254Z,41.66
2023-05-18T14:57:36.887Z,42.97
2023-05-18T15:00:06.568Z,42.22
2023-05-18T15:02:35.212Z,41.83
2023-05-18T15:05:04.045Z,42.70
2023-05-18T15:07:34.174Z,42.46
2023-05-18T15:10:02.922Z,41.60
2023-05-18T15:12:31.574Z,42.13
2023-05-18T15:15:00.337Z,43.22
2023-05-18T15:17:29.133Z,43.83
2023-05-18T15:19:57.860Z,44.89
2023-05-18T15:22:26.516Z,46.03
2023-05-18T15:24:56.552Z,46.15
2023-05-18T15:27:25.136Z,45.55
2023-05-18T15:29:53.815Z,45.50
2023-05-18T15:32:22.388Z,45.33
2023-05-18T15:34:51.845Z,44.80
2023-05-18T15:37:20.414Z,45.70
2023-05-18T15:39:48.914Z,45.44
2023-05-18T15:42:20.268Z,45.89
2023-05-18T15:44:49.023Z,46.36
2023-05-18T15:47:17.564Z,46.17
2023-05-18T15:49:46.112Z,46.28
2023-05-18T15:52:14.591Z,46.50
2023-05-18T15:54:43.092Z,46.69
2023-05-18T15:57:11.572Z,45.83
2023-05-18T15:59:41.581Z,46.73
2023-05-18T16:02:10.354Z,47.15
2023-05-18T16:04:39.191Z,47.39
2023-05-18T16:07:07.769Z,47.36
2023-05-18T16:09:36.358Z,47.48
2023-05-18T16:12:05.256Z,48.30
2023-05-18T16:14:34.092Z,48.51
2023-05-18T16:17:04.239Z,49.46
2023-05-18T16:19:33.505Z,51.92
2023-05-18T16:22:04.455Z,52.48
2023-05-18T16:24:33.019Z,54.21
2023-05-18T16:27:01.645Z,53.89
2023-05-18T16:29:30.414Z,53.61
2023-05-18T16:31:59.324Z,54.15
2023-05-18T16:34:31.611Z,54.36
2023-05-18T16:37:00.712Z,52.56
2023-05-18T16:39:30.180Z,53.97
2023-05-18T16:41:59.367Z,53.56
2023-05-18T16:44:28.836Z,55.40
2023-05-18T16:46:58.115Z,55.66
2023-05-18T16:49:34.890Z,56.07
2023-05-18T16:52:05.630Z,57.43
2023-05-18T16:54:38.934Z,58.75
2023-05-18T16:57:08.940Z,56.64
2023-05-18T16:59:38.244Z,59.04
2023-05-18T17:02:13.481Z,59.79
2023-05-18T17:04:45.132Z,60.07
2023-05-18T17:07:14.355Z,61.71
2023-05-18T17:09:44.494Z,62.90
2023-05-18T17:12:13.965Z,63.95
2023-05-18T17:14:43.187Z,63.77
2023-05-18T17:17:13.394Z,64.98
2023-05-18T17:19:43.561Z,63.29
2023-05-18T17:22:13.520Z,65.62
2023-05-18T17:24:43.631Z,64.90
2023-05-18T17:27:12.993Z,65.06
2023-05-18T17:29:42.057Z,64.11
2023-05-18T17:32:10.761Z,64.57
2023-05-18T17:34:40.854Z,64.37
2023-05-18T17:37:11.836Z,65.14
2023-05-18T17:39:40.918Z,64.83
2023-05-18T17:42:09.824Z,65.18
2023-05-18T17:44:41.794Z,64.96
2023-05-18T17:47:11.011Z,64.40
2023-05-18T17:49:39.755Z,65.69
2023-05-18T17:52:08.884Z,66.22
2023-05-18T17:54:38.862Z,66.08
2023-05-18T17:57:07.665Z,66.65
2023-05-18T17:59:37.365Z,64.31
2023-05-18T18:02:06.533Z,64.88
2023-05-18T18:04:35.204Z,64.63
2023-05-18T18:07:03.773Z,64.09
2023-05-18T18:09:32.611Z,66.24
2023-05-18T18:12:05.518Z,66.78
2023-05-18T18:14:34.369Z,66.32
2023-05-18T18:17:03.603Z,66.64
2023-05-18T18:19:32.430Z,66.38
2023-05-18T18:22:01.334Z,65.66
2023-05-18T18:24:30.406Z,66.49
2023-05-18T18:26:58.911Z,67.71
2023-05-18T18:29:30.705Z,67.92
2023-05-18T18:31:59.364Z,67.47
2023-05-18T18:34:28.202Z,68.53
2023-05-18T18:36:57.076Z,69.23
2023-05-18T18:39:26.571Z,70.79
2023-05-18T18:41:55.381Z,71.03
2023-05-18T18:44:23.896Z,71.33
2023-05-18T18:46:56.908Z,70.72
2023-05-18T18:49:25.836Z,72.97
2023-05-18T18:51:55.033Z,75.84
2023-05-18T18:54:24.071Z,75.99
2023-05-18T18:56:55.431Z,75.90
2023-05-18T18:59:24.477Z,75.30
2023-05-18T19:01:56.095Z,75.64
2023-05-18T19:04:24.855Z,75.20
2023-05-18T19:06:54.254Z,74.77
2023-05-18T19:09:23.088Z,75.70
2023-05-18T19:11:51.672Z,75.39
2023-05-18T19:14:20.309Z,74.14
2023-05-18T19:16:48.960Z,76.69
2023-05-18T19:19:21.056Z,75.03
2023-05-18T19:21:50.978Z,76.07
2023-05-18T19:24:20.321Z,75.91
2023-05-18T19:26:52.522Z,77.18
2023-05-18T19:29:25.398Z,76.09
2023-05-18T19:31:55.903Z,76.80
2023-05-18T19:34:26.723Z,77.57
2023-05-18T19:36:56.295Z,79.58
2023-05-18T19:39:26.843Z,77.60
2023-05-18T19:41:56.399Z,76.90
2023-05-18T19:44:25.582Z,76.38
2023-05-18T19:46:54.166Z,76.34
2023-05-18T19:49:22.805Z,76.40
2023-05-18T19:51:54.086Z,76.28
2023-05-18T19:54:23.438Z,76.68
2023-05-18T19:56:52.448Z,76.72
2023-05-18T19:59:21.514Z,77.17
2023-05-18T20:01:51.663Z,77.45
2023-05-18T20:04:24.172Z,77.48
2023-05-18T20:06:54.428Z,78.04
2023-05-18T20:09:23.304Z,77.81
2023-05-18T20:11:54.759Z,77.93
2023-05-18T20:14:23.789Z,78.01
2023-05-18T20:16:53.394Z,79.05
2023-05-18T20:19:22.401Z,79.18
2023-05-18T20:21:51.569Z,79.27
2023-05-18T20:24:21.788Z,79.64
2023-05-18T20:26:50.927Z,79.67
2023-05-18T20:29:19.803Z,79.65
2023-05-18T20:31:48.516Z,79.98
2023-05-18T20:34:17.373Z,80.16
2023-05-18T20:36:46.097Z,81.04
2023-05-18T20:39:15.594Z,81.00
2023-05-18T20:41:45.948Z,80.92
2023-05-18T20:44:18.024Z,81.55
2023-05-18T20:46:47.925Z,81.94
2023-05-18T20:49:16.586Z,82.08
2023-05-18T20:51:45.067Z,82.45
2023-05-18T20:54:14.400Z,82.99
2023-05-18T20:56:43.996Z,83.45
2023-05-18T20:59:14.018Z,83.60
2023-05-18T21:01:44.611Z,83.88
2023-05-18T21:04:13.604Z,84.19
2023-05-18T21:06:44.579Z,84.76
2023-05-18T21:09:13.123Z,84.51
2023-05-18T21:11:41.918Z,85.08
2023-05-18T21:14:10.775Z,85.17
2023-05-18T21:16:41.636Z,85.28
2023-05-18T21:19:11.283Z,85.54
2023-05-18T21:21:39.927Z,85.87
2023-05-18T21:24:08.508Z,85.59
2023-05-18T21:26:37.158Z,85.97
2023-05-18T21:29:06.428Z,86.23
2023-05-18T21:31:35.060Z,86.89
2023-05-18T21:34:05.351Z,87.50
2023-05-18T21:36:35.053Z,87.96
2023-05-18T21:39:04.944Z,88.21
2023-05-18T21:41:35.470Z,88.41
2023-05-18T21:44:04.075Z,88.54
2023-05-18T21:46:32.892Z,89.60
2023-05-18T21:49:03.119Z,89.66
2023-05-18T21:51:33.338Z,89.10
2023-05-18T21:54:02.633Z,89.95
2023-05-18T21:56:31.297Z,90.66
2023-05-18T21:59:00.281Z,91.45
2023-05-18T22:01:28.938Z,90.97
2023-05-18T22:03:57.753Z,91.90
2023-05-18T22:06:26.310Z,92.22
2023-05-18T22:08:56.248Z,92.23
2023-05-18T22:11:24.812Z,92.18
2023-05-18T22:13:53.404Z,92.52
2023-05-18T22:16:22.047Z,92.50
2023-05-18T22:18:50.742Z,92.82
2023-05-18T22:21:19.967Z,96.05
2023-05-18T22:23:51.560Z,96.72
2023-05-18T22:26:22.634Z,95.90
2023-05-18T22:28:51.617Z,95.27
2023-05-18T22:31:20.490Z,95.11
2023-05-18T22:33:50.719Z,94.67
2023-05-18T22:36:21.938Z,94.94
2023-05-18T22:38:52.581Z,94.81
2023-05-18T22:41:22.747Z,95.24
2023-05-18T22:43:51.681Z,95.57
2023-05-18T22:46:20.926Z,98.94
2023-05-18T22:48:49.745Z,98.03
2023-05-18T22:51:18.954Z,100.00
2023-05-18T22:53:47.680Z,100.00
2023-05-18T22:56:19.227Z,100.00
2023-05-18T22:58:49.541Z,99.62
2023-05-18T23:01:18.091Z,100.00
2023-05-18T23:03:46.769Z,100.00
2023-05-18T23:06:15.397Z,100.00
2023-05-18T23:08:45.047Z,100.00
2023-05-18T23:11:13.600Z,100.00
2023-05-18T23:13:42.176Z,100.00
2023-05-18T23:16:12.093Z,100.00
2023-05-18T23:18:40.639Z,100.00
2023-05-18T23:21:09.258Z,100.00
2023-05-18T23:23:37.751Z,100.00
2023-05-18T23:26:06.299Z,100.00
2023-05-18T23:28:34.882Z,100.00
2023-05-18T23:31:03.480Z,100.00
2023-05-18T23:33:34.973Z,100.00
2023-05-18T23:36:04.515Z,100.00
2023-05-18T23:38:38.191Z,100.00
2023-05-18T23:41:07.336Z,100.00
2023-05-18T23:43:36.461Z,100.00
2023-05-18T23:46:06.902Z,100.00
2023-05-18T23:48:37.640Z,100.00
2023-05-18T23:51:07.638Z,100.00
2023-05-18T23:53:38.508Z,100.00
2023-05-18T23:56:08.573Z,100.00
2023-05-18T23:58:38.174Z,100.00
